createdAt,value
2023-09-23T00:00:18.255Z,92.04
2023-09-23T00:02:45.869Z,91.98
2023-09-23T00:05:17.280Z,92.30
2023-09-23T00:07:45.825Z,92.38
2023-09-23T00:10:14.688Z,92.09
2023-09-23T00:12:42.703Z,92.27
2023-09-23T00:15:12.655Z,92.44
2023-09-23T00:17:42.050Z,91.73
2023-09-23T00:20:15.817Z,91.63
2023-09-23T00:22:43.645Z,91.42
2023-09-23T00:25:11.188Z,92.35
2023-09-23T00:27:40.585Z,91.96
2023-09-23T00:30:09.041Z,92.56
2023-09-23T00:32:38.972Z,91.56
2023-09-23T00:35:08.136Z,91.56
2023-09-23T00:37:35.638Z,92.00
2023-09-23T00:40:04.440Z,92.89
2023-09-23T00:42:32.029Z,92.75
2023-09-23T00:45:00.892Z,93.02
2023-09-23T00:47:28.449Z,91.99
2023-09-23T00:49:56.110Z,92.94
2023-09-23T00:52:23.663Z,92.84
2023-09-23T00:54:52.302Z,93.16
2023-09-23T00:57:19.854Z,92.47
2023-09-23T00:59:47.960Z,92.41
2023-09-23T01:02:16.949Z,92.89
2023-09-23T01:04:44.949Z,92.29
2023-09-23T01:07:12.502Z,92.40
2023-09-23T01:09:40.898Z,92.40
2023-09-23T01:12:09.816Z,92.37
2023-09-23T01:14:37.274Z,93.09
2023-09-23T01:17:11.323Z,92.24
2023-09-23T01:19:40.429Z,92.83
2023-09-23T01:22:09.689Z,92.58
2023-09-23T01:24:38.710Z,92.15
2023-09-23T01:27:06.224Z,92.45
2023-09-23T01:29:34.082Z,91.87
2023-09-23T01:32:21.765Z,92.30
2023-09-23T01:34:49.888Z,92.79
2023-09-23T01:37:18.707Z,91.65
2023-09-23T01:39:48.862Z,91.53
2023-09-23T01:42:16.338Z,92.35
2023-09-23T01:44:45.112Z,92.31
2023-09-23T01:47:12.654Z,92.01
2023-09-23T01:49:40.554Z,92.36
2023-09-23T01:52:08.043Z,91.80
2023-09-23T01:54:35.676Z,91.49
2023-09-23T01:57:05.148Z,92.14
2023-09-23T01:59:33.510Z,92.11
2023-09-23T02:02:01.238Z,92.19
2023-09-23T02:04:28.776Z,92.33
2023-09-23T02:06:56.384Z,91.76
2023-09-23T02:09:24.150Z,92.35
2023-09-23T02:11:54.864Z,92.24
2023-09-23T02:14:23.716Z,92.42
2023-09-23T02:16:51.271Z,91.94
2023-09-23T02:19:19.326Z,91.63
2023-09-23T02:21:47.356Z,92.01
2023-09-23T02:24:14.832Z,91.53
2023-09-23T02:26:42.306Z,91.88
2023-09-23T02:29:11.463Z,91.41
2023-09-23T02:31:40.311Z,91.37
2023-09-23T02:34:11.179Z,91.51
2023-09-23T02:36:39.785Z,91.01
2023-09-23T02:39:07.517Z,91.14
2023-09-23T02:41:35.065Z,91.34
2023-09-23T02:44:05.139Z,90.81
2023-09-23T02:46:33.191Z,91.13
2023-09-23T02:49:02.089Z,91.09
2023-09-23T02:51:29.561Z,90.89
2023-09-23T02:53:57.208Z,91.17
2023-09-23T02:56:24.850Z,91.19
2023-09-23T02:58:53.276Z,91.29
2023-09-23T03:01:20.792Z,90.88
2023-09-23T03:03:48.925Z,90.70
2023-09-23T03:06:19.204Z,90.35
2023-09-23T03:08:49.124Z,90.35
2023-09-23T03:11:19.382Z,90.40
2023-09-23T03:13:47.026Z,90.47
2023-09-23T03:16:15.637Z,91.07
2023-09-23T03:18:56.035Z,91.21
2023-09-23T03:21:24.966Z,91.09
2023-09-23T03:23:53.341Z,91.53
2023-09-23T03:26:22.036Z,90.93
2023-09-23T03:28:48.860Z,91.18
2023-09-23T03:31:16.510Z,91.09
2023-09-23T03:33:46.083Z,90.78
2023-09-23T03:36:17.811Z,90.88
2023-09-23T03:38:47.398Z,90.72
2023-09-23T03:41:15.224Z,90.75
2023-09-23T03:43:42.713Z,90.14
2023-09-23T03:46:13.924Z,90.73
2023-09-23T03:48:41.449Z,90.25
2023-09-23T03:51:10.777Z,90.43
2023-09-23T03:53:38.325Z,89.79
2023-09-23T03:56:07.933Z,89.37
2023-09-23T03:58:35.495Z,89.44
2023-09-23T04:01:08.044Z,88.80
2023-09-23T04:03:35.637Z,89.34
2023-09-23T04:06:03.239Z,89.35
2023-09-23T04:08:30.793Z,89.67
2023-09-23T04:10:58.975Z,90.16
2023-09-23T04:13:27.950Z,89.28
2023-09-23T04:16:01.310Z,89.68
2023-09-23T04:18:29.209Z,89.81
2023-09-23T04:20:57.568Z,90.32
2023-09-23T04:23:25.923Z,91.20
2023-09-23T04:25:53.465Z,91.48
2023-09-23T04:28:21.153Z,91.16
2023-09-23T04:30:53.358Z,90.82
2023-09-23T04:33:21.392Z,90.27
2023-09-23T04:35:49.372Z,91.23
2023-09-23T04:38:17.057Z,91.16
2023-09-23T04:40:44.913Z,90.72
2023-09-23T04:43:13.350Z,91.08
2023-09-23T04:45:40.855Z,90.22
2023-09-23T04:48:11.047Z,91.03
2023-09-23T04:50:40.810Z,90.22
2023-09-23T04:53:08.975Z,90.12
2023-09-23T04:55:36.947Z,90.46
2023-09-23T04:58:04.613Z,89.82
2023-09-23T05:00:33.786Z,90.20
2023-09-23T05:03:02.078Z,90.09
2023-09-23T05:05:32.067Z,90.73
2023-09-23T05:08:00.771Z,91.12
2023-09-23T05:10:29.159Z,90.78
2023-09-23T05:12:57.992Z,90.40
2023-09-23T05:15:25.810Z,90.47
2023-09-23T05:17:53.842Z,91.07
2023-09-23T05:20:22.865Z,91.23
2023-09-23T05:22:51.710Z,90.38
2023-09-23T05:25:19.598Z,89.99
2023-09-23T05:27:47.132Z,90.58
2023-09-23T05:30:15.465Z,90.96
2023-09-23T05:32:45.101Z,90.38
2023-09-23T05:35:12.779Z,90.71
2023-09-23T05:37:41.234Z,90.33
2023-09-23T05:40:19.993Z,90.20
2023-09-23T05:42:48.738Z,89.61
2023-09-23T05:45:16.442Z,89.69
2023-09-23T05:47:44.084Z,89.83
2023-09-23T05:50:13.584Z,89.14
2023-09-23T05:52:41.125Z,88.69
2023-09-23T05:55:10.581Z,88.81
2023-09-23T05:57:39.918Z,88.40
2023-09-23T06:00:09.160Z,88.69
2023-09-23T06:02:37.046Z,88.81
2023-09-23T06:05:04.886Z,88.39
2023-09-23T06:07:33.390Z,88.54
2023-09-23T06:10:01.453Z,88.18
2023-09-23T06:12:31.476Z,88.54
2023-09-23T06:14:59.456Z,88.24
2023-09-23T06:17:28.847Z,88.22
2023-09-23T06:19:58.235Z,88.26
2023-09-23T06:22:26.702Z,87.92
2023-09-23T06:24:54.655Z,88.27
2023-09-23T06:27:22.389Z,88.33
2023-09-23T06:29:51.305Z,88.08
2023-09-23T06:32:18.891Z,88.47
2023-09-23T06:34:46.434Z,88.02
2023-09-23T06:37:14.051Z,87.47
2023-09-23T06:39:41.762Z,87.40
2023-09-23T06:42:09.348Z,87.38
2023-09-23T06:44:36.866Z,86.75
2023-09-23T06:47:06.017Z,87.35
2023-09-23T06:49:33.675Z,87.56
2023-09-23T06:52:01.333Z,87.54
2023-09-23T06:54:28.996Z,86.95
2023-09-23T06:56:56.859Z,86.88
2023-09-23T06:59:24.698Z,86.81
2023-09-23T07:01:52.500Z,85.51
2023-09-23T07:04:21.618Z,85.83
2023-09-23T07:06:49.721Z,85.75
2023-09-23T07:09:17.281Z,85.73
2023-09-23T07:11:44.950Z,85.61
2023-09-23T07:14:12.619Z,85.42
2023-09-23T07:16:40.193Z,86.03
2023-09-23T07:19:09.021Z,85.22
2023-09-23T07:21:37.873Z,85.48
2023-09-23T07:24:08.827Z,85.81
2023-09-23T07:26:38.458Z,86.07
2023-09-23T07:29:06.064Z,85.29
2023-09-23T07:31:33.627Z,85.76
2023-09-23T07:34:01.130Z,85.47
2023-09-23T07:36:28.669Z,85.52
2023-09-23T07:38:57.560Z,85.56
2023-09-23T07:41:25.144Z,85.36
2023-09-23T07:43:52.843Z,85.37
2023-09-23T07:46:20.600Z,85.38
2023-09-23T07:48:48.374Z,84.81
2023-09-23T07:51:16.050Z,84.25
2023-09-23T07:53:43.688Z,83.54
2023-09-23T07:56:12.648Z,83.17
2023-09-23T07:58:40.218Z,84.30
2023-09-23T08:01:07.737Z,84.03
2023-09-23T08:03:35.311Z,82.89
2023-09-23T08:06:02.942Z,82.55
2023-09-23T08:08:30.598Z,83.83
2023-09-23T08:10:58.251Z,83.18
2023-09-23T08:13:27.289Z,83.28
2023-09-23T08:15:59.145Z,83.12
2023-09-23T08:18:26.780Z,83.20
2023-09-23T08:20:58.153Z,81.67
2023-09-23T08:23:27.065Z,82.97
2023-09-23T08:25:55.075Z,83.65
2023-09-23T08:28:22.627Z,83.09
2023-09-23T08:30:52.700Z,80.57
2023-09-23T08:33:20.284Z,79.78
2023-09-23T08:35:48.962Z,80.63
2023-09-23T08:38:16.692Z,78.45
2023-09-23T08:40:46.424Z,76.35
2023-09-23T08:43:14.118Z,78.48
2023-09-23T08:45:44.648Z,77.21
2023-09-23T08:48:14.479Z,76.49
2023-09-23T08:50:45.146Z,75.74
2023-09-23T08:53:15.491Z,77.62
2023-09-23T08:55:45.996Z,76.70
2023-09-23T08:58:13.585Z,75.76
2023-09-23T09:00:46.696Z,76.33
2023-09-23T09:03:15.785Z,76.04
2023-09-23T09:05:44.503Z,75.38
2023-09-23T09:08:12.438Z,74.65
2023-09-23T09:10:41.334Z,73.97
2023-09-23T09:13:09.430Z,74.81
2023-09-23T09:15:37.464Z,75.27
2023-09-23T09:18:05.984Z,75.47
2023-09-23T09:20:35.520Z,72.96
2023-09-23T09:23:04.089Z,73.17
2023-09-23T09:25:32.474Z,74.05
2023-09-23T09:28:00.224Z,72.66
2023-09-23T09:30:28.586Z,71.63
2023-09-23T09:33:01.392Z,72.42
2023-09-23T09:35:29.612Z,70.71
2023-09-23T09:38:16.796Z,71.34
2023-09-23T09:40:46.405Z,72.39
2023-09-23T09:43:15.847Z,70.86
2023-09-23T09:45:45.614Z,69.04
2023-09-23T09:48:15.083Z,68.89
2023-09-23T09:50:43.737Z,70.43
2023-09-23T09:53:13.538Z,69.95
2023-09-23T09:55:41.851Z,71.07
2023-09-23T09:58:09.385Z,70.11
2023-09-23T10:00:43.349Z,70.18
2023-09-23T10:03:14.059Z,70.18
2023-09-23T10:05:47.310Z,70.69
2023-09-23T10:08:20.958Z,70.49
2023-09-23T10:10:50.088Z,69.57
2023-09-23T10:13:19.398Z,68.99
2023-09-23T10:15:47.296Z,70.24
2023-09-23T10:18:16.600Z,72.39
2023-09-23T10:20:49.280Z,72.50
2023-09-23T10:23:20.303Z,72.44
2023-09-23T10:25:52.329Z,69.68
2023-09-23T10:28:23.359Z,69.38
2023-09-23T10:30:58.764Z,68.55
2023-09-23T10:33:27.534Z,71.30
2023-09-23T10:35:58.015Z,68.49
2023-09-23T10:38:31.834Z,69.59
2023-09-23T10:41:00.054Z,69.50
2023-09-23T10:43:28.930Z,68.25
2023-09-23T10:45:58.039Z,66.66
2023-09-23T10:48:25.832Z,65.79
2023-09-23T10:50:53.730Z,64.72
2023-09-23T10:53:23.209Z,68.21
2023-09-23T10:55:53.267Z,67.29
2023-09-23T10:58:22.360Z,68.30
2023-09-23T11:00:52.618Z,66.42
2023-09-23T11:03:23.141Z,66.25
2023-09-23T11:05:52.470Z,66.12
2023-09-23T11:08:20.575Z,65.85
2023-09-23T11:10:50.594Z,65.39
2023-09-23T11:13:20.500Z,65.18
2023-09-23T11:15:49.289Z,65.56
2023-09-23T11:18:19.120Z,63.25
2023-09-23T11:20:48.545Z,64.72
2023-09-23T11:23:16.805Z,62.93
2023-09-23T11:25:46.456Z,64.77
2023-09-23T11:28:19.758Z,65.65
2023-09-23T11:30:48.292Z,66.23
2023-09-23T11:33:16.819Z,67.60
2023-09-23T11:35:46.371Z,68.38
2023-09-23T11:38:14.891Z,68.62
2023-09-23T11:40:43.045Z,68.39
2023-09-23T11:43:10.891Z,70.06
2023-09-23T11:45:40.964Z,69.84
2023-09-23T11:48:09.980Z,70.45
2023-09-23T11:50:38.901Z,71.40
2023-09-23T11:53:09.056Z,69.70
2023-09-23T11:55:37.166Z,69.72
2023-09-23T11:58:08.367Z,69.90
2023-09-23T12:00:36.386Z,68.49
2023-09-23T12:03:06.100Z,69.13
2023-09-23T12:05:33.953Z,69.92
2023-09-23T12:08:02.327Z,69.92
2023-09-23T12:10:31.303Z,70.92
2023-09-23T12:13:04.789Z,69.88
2023-09-23T12:15:33.369Z,69.23
2023-09-23T12:18:01.569Z,68.97
2023-09-23T12:20:30.856Z,68.92
2023-09-23T12:23:00.793Z,67.52
2023-09-23T12:25:28.708Z,67.36
2023-09-23T12:27:56.445Z,66.85
2023-09-23T12:30:24.354Z,67.83
2023-09-23T12:32:52.250Z,65.54
2023-09-23T12:35:20.224Z,65.11
2023-09-23T12:37:50.025Z,64.76
2023-09-23T12:40:17.760Z,64.31
2023-09-23T12:42:45.610Z,60.50
2023-09-23T12:45:14.120Z,61.92
2023-09-23T12:47:56.231Z,63.29
2023-09-23T12:50:24.746Z,63.43
2023-09-23T12:52:54.369Z,60.91
2023-09-23T12:55:22.139Z,61.27
2023-09-23T12:57:50.255Z,62.43
2023-09-23T13:00:18.097Z,58.58
2023-09-23T13:02:45.809Z,61.90
2023-09-23T13:05:16.395Z,59.19
2023-09-23T13:07:44.232Z,59.15
2023-09-23T13:10:14.773Z,57.59
2023-09-23T13:12:43.068Z,57.32
2023-09-23T13:15:10.718Z,56.65
2023-09-23T13:17:38.797Z,56.50
2023-09-23T13:20:07.701Z,57.47
2023-09-23T13:22:35.227Z,58.97
2023-09-23T13:25:03.109Z,58.93
2023-09-23T13:27:32.863Z,59.47
2023-09-23T13:30:00.441Z,59.95
2023-09-23T13:32:28.212Z,58.45
2023-09-23T13:34:55.780Z,59.59
2023-09-23T13:37:23.315Z,60.85
2023-09-23T13:39:50.801Z,57.65
2023-09-23T13:42:18.532Z,57.33
2023-09-23T13:44:50.887Z,57.74
2023-09-23T13:47:18.981Z,60.37
2023-09-23T13:49:46.644Z,59.62
2023-09-23T13:52:14.247Z,59.25
2023-09-23T13:54:41.788Z,59.43
2023-09-23T13:57:09.958Z,58.56
2023-09-23T13:59:37.545Z,59.99
2023-09-23T14:02:06.651Z,58.57
2023-09-23T14:04:34.367Z,56.45
2023-09-23T14:07:01.984Z,56.22
2023-09-23T14:09:29.536Z,57.38
2023-09-23T14:11:57.861Z,56.61
2023-09-23T14:14:25.524Z,55.67
2023-09-23T14:16:53.169Z,54.84
2023-09-23T14:19:22.165Z,54.60
2023-09-23T14:21:49.807Z,56.37
2023-09-23T14:24:17.597Z,54.60
2023-09-23T14:26:45.690Z,53.85
2023-09-23T14:29:13.331Z,56.44
2023-09-23T14:31:40.983Z,55.01
2023-09-23T14:34:09.316Z,55.23
2023-09-23T14:36:38.718Z,55.07
2023-09-23T14:39:06.581Z,55.76
2023-09-23T14:41:34.834Z,57.22
2023-09-23T14:44:02.891Z,56.60
2023-09-23T14:46:30.651Z,58.13
2023-09-23T14:48:58.328Z,55.25
2023-09-23T14:51:25.959Z,56.20
2023-09-23T14:53:54.967Z,57.06
2023-09-23T14:56:23.566Z,55.04
2023-09-23T14:58:51.250Z,55.22
2023-09-23T15:01:18.930Z,57.29
2023-09-23T15:03:46.857Z,56.78
2023-09-23T15:06:14.649Z,57.64
2023-09-23T15:08:57.885Z,59.59
2023-09-23T15:11:29.783Z,57.02
2023-09-23T15:13:58.266Z,56.37
2023-09-23T15:16:26.204Z,58.10
2023-09-23T15:18:54.025Z,60.24
2023-09-23T15:21:22.613Z,60.70
2023-09-23T15:23:50.292Z,57.26
2023-09-23T15:26:18.871Z,56.46
2023-09-23T15:28:48.310Z,56.58
2023-09-23T15:31:16.083Z,57.76
2023-09-23T15:33:43.925Z,57.71
2023-09-23T15:36:13.184Z,58.32
2023-09-23T15:38:41.113Z,60.29
2023-09-23T15:41:10.183Z,60.05
2023-09-23T15:43:38.516Z,59.22
2023-09-23T15:46:07.497Z,59.46
2023-09-23T15:48:35.709Z,58.10
2023-09-23T15:51:10.354Z,56.98
2023-09-23T15:53:38.569Z,57.38
2023-09-23T15:56:07.913Z,58.27
2023-09-23T15:58:35.777Z,55.97
2023-09-23T16:01:05.310Z,57.73
2023-09-23T16:03:35.148Z,58.65
2023-09-23T16:06:03.137Z,57.50
2023-09-23T16:08:30.917Z,57.56
2023-09-23T16:10:58.664Z,58.92
2023-09-23T16:13:26.231Z,59.31
2023-09-23T16:15:53.845Z,58.88
2023-09-23T16:18:23.246Z,61.76
2023-09-23T16:20:52.933Z,60.24
2023-09-23T16:23:20.681Z,60.32
2023-09-23T16:25:48.368Z,59.90
2023-09-23T16:28:15.912Z,60.22
2023-09-23T16:30:43.508Z,60.58
2023-09-23T16:33:12.391Z,60.69
2023-09-23T16:35:40.176Z,61.08
2023-09-23T16:38:09.226Z,62.20
2023-09-23T16:40:37.155Z,61.25
2023-09-23T16:43:05.150Z,62.61
2023-09-23T16:45:32.827Z,63.39
2023-09-23T16:48:00.578Z,63.76
2023-09-23T16:50:28.481Z,65.51
2023-09-23T16:52:56.290Z,66.96
2023-09-23T16:55:25.191Z,67.63
2023-09-23T16:57:52.793Z,67.87
2023-09-23T17:00:20.433Z,69.61
2023-09-23T17:02:48.456Z,70.43
2023-09-23T17:05:16.289Z,70.49
2023-09-23T17:07:44.115Z,70.38
2023-09-23T17:10:12.003Z,70.76
2023-09-23T17:12:41.102Z,70.61
2023-09-23T17:15:10.297Z,71.65
2023-09-23T17:17:37.940Z,72.78
2023-09-23T17:20:06.800Z,71.79
2023-09-23T17:22:34.442Z,72.54
2023-09-23T17:25:02.293Z,72.31
2023-09-23T17:27:29.958Z,74.11
2023-09-23T17:29:58.840Z,74.45
2023-09-23T17:32:26.519Z,74.06
2023-09-23T17:34:54.143Z,75.01
2023-09-23T17:37:21.948Z,75.27
2023-09-23T17:39:49.515Z,75.93
2023-09-23T17:42:17.054Z,75.88
2023-09-23T17:44:46.572Z,76.93
2023-09-23T17:47:15.686Z,76.60
2023-09-23T17:49:43.212Z,76.90
2023-09-23T17:52:10.736Z,77.32
2023-09-23T17:54:38.307Z,77.24
2023-09-23T17:57:05.860Z,77.89
2023-09-23T17:59:34.995Z,78.47
2023-09-23T18:02:02.877Z,79.11
2023-09-23T18:04:32.619Z,78.74
2023-09-23T18:07:00.958Z,78.96
2023-09-23T18:09:29.542Z,79.65
2023-09-23T18:11:57.415Z,80.14
2023-09-23T18:14:25.444Z,80.15
2023-09-23T18:16:54.203Z,80.66
2023-09-23T18:19:22.045Z,80.07
2023-09-23T18:21:51.489Z,80.82
2023-09-23T18:24:19.234Z,80.71
2023-09-23T18:26:46.890Z,80.35
2023-09-23T18:29:14.777Z,81.06
2023-09-23T18:31:44.842Z,82.03
2023-09-23T18:34:12.839Z,82.46
2023-09-23T18:36:40.815Z,82.81
2023-09-23T18:39:09.880Z,83.19
2023-09-23T18:41:37.639Z,83.45
2023-09-23T18:44:06.031Z,83.71
2023-09-23T18:46:33.749Z,83.72
2023-09-23T18:49:01.699Z,84.60
2023-09-23T18:51:29.756Z,84.92
2023-09-23T18:53:57.573Z,85.11
2023-09-23T18:56:27.261Z,84.89
2023-09-23T18:58:55.275Z,84.88
2023-09-23T19:01:23.199Z,85.04
2023-09-23T19:03:53.266Z,85.16
2023-09-23T19:06:22.028Z,85.40
2023-09-23T19:08:49.943Z,84.98
2023-09-23T19:11:21.184Z,85.29
2023-09-23T19:14:01.231Z,85.69
2023-09-23T19:16:31.351Z,85.28
2023-09-23T19:19:02.914Z,85.59
2023-09-23T19:21:32.647Z,85.93
2023-09-23T19:24:01.534Z,87.22
2023-09-23T19:26:53.817Z,86.91
2023-09-23T19:29:27.350Z,87.36
2023-09-23T19:32:02.704Z,87.90
2023-09-23T19:34:33.390Z,88.05
2023-09-23T19:37:11.451Z,87.67
2023-09-23T19:39:40.196Z,87.28
2023-09-23T19:42:09.358Z,88.29
2023-09-23T19:44:40.361Z,88.25
2023-09-23T19:47:21.656Z,89.12
2023-09-23T19:49:54.650Z,88.97
2023-09-23T19:52:24.058Z,89.54
2023-09-23T19:54:52.920Z,89.19
2023-09-23T19:57:24.187Z,88.13
2023-09-23T20:00:00.920Z,87.96
2023-09-23T20:02:29.882Z,88.55
2023-09-23T20:04:58.622Z,88.83
2023-09-23T20:07:28.873Z,88.69
2023-09-23T20:09:57.622Z,88.42
2023-09-23T20:12:27.352Z,89.12
2023-09-23T20:14:58.257Z,88.66
2023-09-23T20:17:34.641Z,89.28
2023-09-23T20:20:06.402Z,88.22
2023-09-23T20:22:34.235Z,89.19
2023-09-23T20:25:02.001Z,89.33
2023-09-23T20:27:30.384Z,89.70
2023-09-23T20:30:07.076Z,89.13
2023-09-23T20:32:37.020Z,90.04
2023-09-23T20:35:07.032Z,90.47
2023-09-23T20:37:36.476Z,89.56
2023-09-23T20:40:07.486Z,90.09
2023-09-23T20:42:35.426Z,89.68
2023-09-23T20:45:06.300Z,90.23
2023-09-23T20:47:35.355Z,90.80
2023-09-23T20:50:05.598Z,89.80
2023-09-23T20:52:34.082Z,90.77
2023-09-23T20:55:01.903Z,91.51
2023-09-23T20:57:33.517Z,91.11
2023-09-23T21:00:01.953Z,91.03
2023-09-23T21:02:31.119Z,90.84
2023-09-23T21:04:59.403Z,91.27
2023-09-23T21:07:27.635Z,91.04
2023-09-23T21:09:55.624Z,91.27
2023-09-23T21:12:23.432Z,92.61
2023-09-23T21:14:51.545Z,91.36
2023-09-23T21:17:19.302Z,91.85
2023-09-23T21:19:48.516Z,92.11
2023-09-23T21:22:16.382Z,91.43
2023-09-23T21:24:44.305Z,91.71
2023-09-23T21:27:13.749Z,91.75
2023-09-23T21:29:41.586Z,91.42
2023-09-23T21:32:09.384Z,91.97
2023-09-23T21:34:37.055Z,91.80
2023-09-23T21:37:06.190Z,91.48
2023-09-23T21:39:34.079Z,92.08
2023-09-23T21:42:02.297Z,91.91
2023-09-23T21:44:30.439Z,91.90
2023-09-23T21:46:58.018Z,92.72
2023-09-23T21:49:25.523Z,92.31
2023-09-23T21:51:53.092Z,92.60
2023-09-23T21:54:21.951Z,92.45
2023-09-23T21:56:49.746Z,93.10
2023-09-23T21:59:17.418Z,93.02
2023-09-23T22:01:46.617Z,92.79
2023-09-23T22:04:15.243Z,92.92
2023-09-23T22:06:43.092Z,93.01
2023-09-23T22:09:10.630Z,93.05
2023-09-23T22:11:39.811Z,93.24
2023-09-23T22:14:07.930Z,92.87
2023-09-23T22:16:39.756Z,93.04
2023-09-23T22:19:07.348Z,92.91
2023-09-23T22:21:36.610Z,93.82
2023-09-23T22:24:06.902Z,93.01
2023-09-23T22:26:35.847Z,93.42
2023-09-23T22:29:09.949Z,93.21
2023-09-23T22:31:37.710Z,93.51
2023-09-23T22:34:05.355Z,93.42
2023-09-23T22:36:33.786Z,93.26
2023-09-23T22:39:01.866Z,93.28
2023-09-23T22:41:30.177Z,93.66
2023-09-23T22:43:58.081Z,93.61
2023-09-23T22:46:27.583Z,94.22
2023-09-23T22:48:55.337Z,93.92
2023-09-23T22:51:22.944Z,93.28
2023-09-23T22:53:51.833Z,93.08
2023-09-23T22:56:19.687Z,93.17
2023-09-23T22:58:48.823Z,93.06
2023-09-23T23:01:17.053Z,93.91
2023-09-23T23:03:46.578Z,93.97
2023-09-23T23:06:14.558Z,93.78
2023-09-23T23:08:43.159Z,93.73
2023-09-23T23:11:11.395Z,93.80
2023-09-23T23:13:39.844Z,93.58
2023-09-23T23:16:09.879Z,93.77
2023-09-23T23:18:38.760Z,93.98
2023-09-23T23:21:08.073Z,94.31
2023-09-23T23:23:35.650Z,94.44
2023-09-23T23:26:07.370Z,94.15
2023-09-23T23:28:35.645Z,94.25
2023-09-23T23:31:05.548Z,94.31
2023-09-23T23:33:33.316Z,94.13
2023-09-23T23:36:01.749Z,94.54
2023-09-23T23:38:31.427Z,94.25
2023-09-23T23:41:00.075Z,94.42
2023-09-23T23:43:27.696Z,94.45
2023-09-23T23:45:59.832Z,94.31
2023-09-23T23:48:28.812Z,94.59
2023-09-23T23:51:03.840Z,94.70
2023-09-23T23:53:33.493Z,94.50
2023-09-23T23:56:01.975Z,94.79
2023-09-23T23:58:29.915Z,94.30
